Time;durP1;ratioP1;P1;durP2;ratioP2;P2;SDS_P1;SDS_P2;PMS_P1;PMS_P2;Temp;Humidity;BMP_temperature;BMP_pressure;BME280_temperature;BME280_humidity;BME280_pressure;Samples;Min_cycle;Max_cycle;Signal;HPM_P1;HPM_P2
2022/05/16 00:02:00;;;;;;;7.70;6.07;;;14.70;99.90;;;;;;4997599;28;20469;-53
2022/05/16 00:04:29;;;;;;;7.33;6.50;;;14.60;99.90;;;;;;5013210;28;20586;-54
2022/05/16 00:07:01;;;;;;;8.23;6.73;;;14.70;99.90;;;;;;5016862;28;20460;-56
2022/05/16 00:09:28;;;;;;;8.50;5.93;;;14.70;99.90;;;;;;5016597;28;20554;-56
2022/05/16 00:12:01;;;;;;;11.00;6.37;;;14.60;99.90;;;;;;5016975;28;20959;-56
2022/05/16 00:14:32;;;;;;;7.07;6.30;;;14.60;99.90;;;;;;5004337;28;20469;-56
2022/05/16 00:16:59;;;;;;;7.57;6.63;;;14.60;99.90;;;;;;5001235;28;20465;-56
2022/05/16 00:19:29;;;;;;;7.27;6.57;;;14.60;99.90;;;;;;5020420;28;20467;-56
2022/05/16 00:21:58;;;;;;;10.07;7.20;;;14.60;99.90;;;;;;5020285;28;20464;-55
2022/05/16 00:24:26;;;;;;;8.60;6.60;;;14.50;99.90;;;;;;5020794;28;20908;-56
2022/05/16 00:26:53;;;;;;;6.73;6.03;;;14.50;99.90;;;;;;5020744;28;20915;-54
2022/05/16 00:29:33;;;;;;;10.07;6.33;;;14.50;99.90;;;;;;5005359;28;20503;-57
2022/05/16 00:32:04;;;;;;;7.83;6.50;;;14.60;99.90;;;;;;5001484;28;20772;-56
2022/05/16 00:34:32;;;;;;;9.03;6.60;;;14.60;99.90;;;;;;5000790;28;20539;-56
2022/05/16 00:36:58;;;;;;;9.07;7.00;;;14.60;99.90;;;;;;5001057;28;20468;-56
2022/05/16 00:39:26;;;;;;;9.90;7.00;;;14.60;99.90;;;;;;5000621;28;20801;-57
2022/05/16 00:41:53;;;;;;;6.90;6.20;;;14.60;99.90;;;;;;5000338;28;20527;-55
2022/05/16 00:44:28;;;;;;;9.27;7.20;;;14.60;99.90;;;;;;5014691;28;20521;-55
2022/05/16 00:46:56;;;;;;;8.97;6.13;;;14.60;99.90;;;;;;5019860;28;20470;-55
2022/05/16 00:49:28;;;;;;;6.83;5.53;;;14.60;99.90;;;;;;5019492;28;20498;-56
2022/05/16 00:52:00;;;;;;;9.83;5.57;;;14.60;99.90;;;;;;5020093;28;20918;-56
2022/05/16 00:54:34;;;;;;;8.17;6.10;;;14.50;99.90;;;;;;5007144;28;20499;-56
2022/05/16 00:57:06;;;;;;;7.90;6.03;;;14.50;99.90;;;;;;5000919;28;20468;-56
2022/05/16 00:59:41;;;;;;;7.83;6.57;;;14.60;99.90;;;;;;5000010;28;20468;-56
2022/05/16 01:04:58;;;;;;;8.30;6.67;;;14.50;99.90;;;;;;5012037;28;20451;-55
2022/05/16 01:07:29;;;;;;;7.00;6.30;;;14.50;99.90;;;;;;5019990;28;20762;-54
2022/05/16 01:09:59;;;;;;;11.67;6.50;;;14.40;99.90;;;;;;5019730;28;20468;-55
2022/05/16 01:12:32;;;;;;;11.37;7.10;;;14.50;99.90;;;;;;5019687;28;20514;-56
2022/05/16 01:15:06;;;;;;;7.23;5.90;;;14.40;99.90;;;;;;5010447;28;20469;-57
2022/05/16 01:17:33;;;;;;;8.33;6.73;;;14.50;99.90;;;;;;4999632;28;20473;-56
2022/05/16 01:20:09;;;;;;;10.17;6.73;;;14.40;99.90;;;;;;4998996;28;20468;-54
2022/05/16 01:22:46;;;;;;;9.83;7.20;;;14.50;99.90;;;;;;5000321;28;20460;-56
2022/05/16 01:25:21;;;;;;;8.20;6.57;;;14.40;99.90;;;;;;5006998;28;20463;-54
2022/05/16 01:27:53;;;;;;;8.00;6.20;;;14.40;99.90;;;;;;5019256;28;20491;-56
2022/05/16 01:30:32;;;;;;;7.23;6.03;;;14.40;99.90;;;;;;5018082;28;20494;-54
2022/05/16 01:32:59;;;;;;;9.43;6.80;;;14.50;99.90;;;;;;5019079;28;20757;-56
2022/05/16 01:35:33;;;;;;;7.17;5.20;;;14.60;99.90;;;;;;5013498;28;20465;-56
2022/05/16 01:38:22;;;;;;;8.10;5.50;;;14.60;99.90;;;;;;4999951;28;20730;-54
2022/05/16 01:40:51;;;;;;;8.20;5.63;;;14.60;99.90;;;;;;4999812;28;20465;-56
2022/05/16 07:51:14;;;;;;;5.00;4.50;;;19.60;99.90;;;;;;3452200;28;22432;-57
2022/05/16 07:53:42;;;;;;;6.73;5.07;;;19.50;99.90;;;;;;4998093;28;20469;-56
2022/05/16 07:56:10;;;;;;;6.77;5.03;;;19.50;99.90;;;;;;5005171;28;20477;-58
2022/05/16 07:58:43;;;;;;;7.03;4.60;;;19.50;99.90;;;;;;4997602;28;20492;-58
2022/05/16 08:01:11;;;;;;;7.10;5.10;;;19.40;99.90;;;;;;4997571;28;20663;-58
2022/05/16 08:03:43;;;;;;;5.73;5.03;;;19.40;99.90;;;;;;5000772;28;20464;-56
2022/05/16 08:06:12;;;;;;;9.10;4.63;;;19.40;99.90;;;;;;5012835;28;20511;-57
2022/05/16 08:11:25;;;;;;;7.43;4.60;;;19.50;99.90;;;;;;5017092;28;20434;-57
2022/05/16 08:13:55;;;;;;;8.47;4.60;;;19.70;99.90;;;;;;5014022;28;20496;-57
2022/05/16 08:16:22;;;;;;;5.47;4.60;;;19.70;99.90;;;;;;5002423;28;20504;-57
2022/05/16 08:18:49;;;;;;;6.00;4.03;;;19.90;99.90;;;;;;4998489;28;20512;-57
2022/05/16 08:21:16;;;;;;;6.33;4.90;;;20.10;99.90;;;;;;4998521;28;20532;-57
2022/05/16 08:23:43;;;;;;;9.60;4.83;;;20.10;99.90;;;;;;5015366;28;20464;-57
2022/05/16 08:26:13;;;;;;;6.30;4.53;;;20.20;99.90;;;;;;4997957;28;20465;-57
2022/05/16 08:28:47;;;;;;;14.23;5.07;;;20.20;99.90;;;;;;5005165;28;20832;-57
2022/05/16 08:31:19;;;;;;;10.43;4.80;;;20.30;99.90;;;;;;5000190;28;20487;-58
2022/05/16 08:33:47;;;;;;;7.73;5.67;;;20.60;99.90;;;;;;4997373;28;20535;-57
2022/05/16 08:41:53;;;;;;;6.30;4.53;;;21.50;99.90;;;;;;5013045;28;20468;-57
2022/05/16 08:44:28;;;;;;;5.43;4.83;;;21.80;99.90;;;;;;5019304;28;20904;-56
2022/05/16 08:47:12;;;;;;;6.83;4.50;;;21.60;99.90;;;;;;5016957;28;20506;-57
2022/05/16 08:49:56;;;;;;;8.23;4.30;;;21.60;99.90;;;;;;5009175;28;20496;-55
2022/05/16 08:52:35;;;;;;;6.23;4.90;;;21.50;99.90;;;;;;4999399;28;20587;-56
2022/05/16 08:55:06;;;;;;;5.13;4.53;;;21.20;99.90;;;;;;5001287;28;20822;-57
2022/05/16 08:57:38;;;;;;;9.37;5.07;;;21.00;99.90;;;;;;5000238;28;20890;-57
2022/05/16 09:00:10;;;;;;;6.50;5.10;;;20.90;99.90;;;;;;5000894;28;20798;-57
2022/05/16 09:02:43;;;;;;;7.80;4.13;;;21.00;99.90;;;;;;5000232;28;20461;-57
2022/05/16 09:05:16;;;;;;;8.87;4.70;;;21.00;99.90;;;;;;5014063;28;20847;-57
2022/05/16 09:07:50;;;;;;;8.30;4.90;;;21.10;99.90;;;;;;5014135;28;20476;-57
2022/05/16 09:10:21;;;;;;;9.80;4.63;;;21.00;99.90;;;;;;5012206;28;20952;-57
2022/05/16 09:12:59;;;;;;;9.73;4.40;;;21.00;99.90;;;;;;5008396;28;20473;-57
2022/05/16 09:15:38;;;;;;;9.17;5.17;;;21.10;99.90;;;;;;5001962;28;20480;-57
2022/05/16 09:18:32;;;;;;;5.93;5.27;;;21.10;99.90;;;;;;5012435;28;20562;-56
2022/05/16 09:21:12;;;;;;;8.50;4.93;;;20.90;99.90;;;;;;5015251;28;20547;-57
2022/05/16 09:24:06;;;;;;;5.20;4.70;;;20.90;99.90;;;;;;5016539;28;20570;-56
2022/05/16 09:26:50;;;;;;;6.10;3.97;;;20.90;99.90;;;;;;5011731;28;20837;-57
2022/05/16 09:29:24;;;;;;;8.77;4.90;;;20.90;99.90;;;;;;5005855;28;20580;-56
2022/05/16 09:32:00;;;;;;;7.03;4.63;;;20.90;99.90;;;;;;4999701;28;20766;-57
2022/05/16 09:34:27;;;;;;;5.77;5.03;;;20.90;99.90;;;;;;5015061;28;20550;-56
2022/05/16 09:39:45;;;;;;;6.33;5.00;;;21.10;99.90;;;;;;4995046;28;20433;-58
2022/05/16 09:42:24;;;;;;;7.67;4.90;;;21.10;99.90;;;;;;5013330;28;20512;-57
2022/05/16 09:44:59;;;;;;;8.00;5.03;;;21.10;99.90;;;;;;4999063;28;20975;-56
2022/05/16 09:47:40;;;;;;;8.77;4.77;;;21.10;99.90;;;;;;4998724;28;20464;-56
2022/05/16 09:50:29;;;;;;;6.63;4.93;;;21.10;99.90;;;;;;4998377;28;20489;-57
2022/05/16 09:53:14;;;;;;;8.90;5.57;;;21.10;99.90;;;;;;4999050;28;20921;-57
2022/05/16 09:55:46;;;;;;;8.90;5.77;;;21.20;99.90;;;;;;4999166;28;20797;-57
2022/05/16 09:58:22;;;;;;;6.07;4.67;;;21.30;99.90;;;;;;5011315;28;20495;-56
2022/05/16 10:00:56;;;;;;;9.17;5.87;;;21.40;99.90;;;;;;5013272;28;20551;-57
2022/05/16 10:03:31;;;;;;;6.10;5.50;;;21.60;99.90;;;;;;4999265;28;20467;-55
2022/05/16 10:06:00;;;;;;;5.67;5.20;;;21.70;99.90;;;;;;4998809;28;20475;-56
2022/05/16 10:08:33;;;;;;;7.47;5.60;;;21.90;99.90;;;;;;5006137;28;20920;-57
2022/05/16 10:11:03;;;;;;;10.30;6.10;;;22.30;99.90;;;;;;5008904;28;20587;-57
2022/05/16 10:13:30;;;;;;;7.47;4.87;;;22.90;99.90;;;;;;5017623;28;20469;-58
2022/05/16 10:16:00;;;;;;;5.37;4.80;;;23.60;99.90;;;;;;5018764;28;20973;-58
2022/05/16 10:18:31;;;;;;;9.17;5.50;;;24.70;99.90;;;;;;5013447;28;20476;-58
2022/05/16 10:21:11;;;;;;;5.13;4.63;;;25.50;99.90;;;;;;5010567;28;20467;-57
2022/05/16 10:23:45;;;;;;;7.60;5.07;;;26.00;99.90;;;;;;4998881;28;20492;-60
2022/05/16 10:26:17;;;;;;;8.47;5.53;;;26.70;99.90;;;;;;5002638;28;20495;-59
2022/05/16 10:28:47;;;;;;;5.80;5.20;;;27.30;99.90;;;;;;5004012;28;20469;-58
2022/05/16 10:34:09;;;;;;;6.20;5.20;;;28.40;99.90;;;;;;5009144;28;20515;-59
2022/05/16 10:36:38;;;;;;;5.33;4.60;;;28.50;99.90;;;;;;5002739;28;20851;-59
2022/05/16 10:39:08;;;;;;;5.70;4.33;;;28.20;99.90;;;;;;5003767;28;20543;-57
2022/05/16 10:41:50;;;;;;;5.87;4.97;;;28.40;99.90;;;;;;5003832;28;20479;-57
2022/05/16 10:44:26;;;;;;;4.03;3.60;;;28.70;99.90;;;;;;4999656;28;20542;-58
2022/05/16 10:47:06;;;;;;;5.73;4.33;;;29.50;99.90;;;;;;5006197;28;20507;-55
2022/05/16 10:49:48;;;;;;;8.87;4.60;;;29.90;99.90;;;;;;5004322;28;20582;-60
2022/05/16 10:52:28;;;;;;;5.93;4.40;;;30.10;99.90;;;;;;5001219;28;20561;-60
2022/05/16 10:54:55;;;;;;;4.90;4.40;;;31.00;99.90;;;;;;5004236;28;20537;-59
2022/05/16 10:57:40;;;;;;;6.07;4.77;;;31.40;99.90;;;;;;5015733;28;20801;-58
2022/05/16 11:00:09;;;;;;;4.87;4.37;;;30.70;99.90;;;;;;5004470;28;20475;-59
2022/05/16 11:03:15;;;;;;;5.97;4.63;;;30.20;99.90;;;;;;5005410;28;20482;-59
2022/05/16 11:06:10;;;;;;;4.27;3.97;;;30.10;99.90;;;;;;5002679;28;20574;-59
2022/05/16 11:08:49;;;;;;;3.60;3.30;;;30.80;99.90;;;;;;5006693;28;20508;-60
2022/05/16 11:11:30;;;;;;;3.87;3.00;;;31.80;99.90;;;;;;5013647;28;20582;-59
2022/05/16 11:14:08;;;;;;;3.70;3.40;;;32.50;99.90;;;;;;5014874;28;20463;-60
2022/05/16 11:16:39;;;;;;;3.73;3.43;;;32.20;99.90;;;;;;4998014;28;20539;-60
2022/05/16 11:19:19;;;;;;;3.93;3.23;;;32.00;99.90;;;;;;5008816;28;20502;-60
2022/05/16 11:21:53;;;;;;;4.47;4.07;;;32.30;99.90;;;;;;5007523;28;20941;-60
2022/05/16 11:24:30;;;;;;;4.70;3.60;;;32.40;99.90;;;;;;4997840;28;20476;-60
2022/05/16 11:27:09;;;;;;;4.50;4.10;;;32.60;99.90;;;;;;4997845;28;20495;-59
2022/05/16 11:29:47;;;;;;;4.73;4.10;;;32.80;99.90;;;;;;5009426;28;20959;-60
2022/05/16 11:32:32;;;;;;;5.10;3.60;;;32.40;99.90;;;;;;5016965;28;20879;-60
2022/05/16 11:35:08;;;;;;;5.03;4.07;;;32.70;99.90;;;;;;5002698;28;20484;-60
2022/05/16 11:37:56;;;;;;;4.60;4.20;;;33.00;99.90;;;;;;4996787;28;20955;-60
2022/05/16 11:40:32;;;;;;;5.43;4.37;;;32.60;99.90;;;;;;5005867;28;20585;-59
2022/05/16 11:43:09;;;;;;;4.67;4.00;;;32.10;99.90;;;;;;5017117;28;20815;-60
2022/05/16 11:46:17;;;;;;;4.03;3.70;;;32.50;99.90;;;;;;5003840;28;20503;-60
2022/05/16 11:48:54;;;;;;;5.10;4.00;;;32.30;99.90;;;;;;5000775;28;20563;-60
2022/05/16 11:51:43;;;;;;;3.87;3.57;;;32.40;99.90;;;;;;5016725;28;20584;-60
2022/05/16 11:54:17;;;;;;;4.70;3.57;;;32.10;99.90;;;;;;5008950;28;20456;-60
2022/05/16 12:02:54;;;;;;;5.30;3.77;;;31.20;99.90;;;;;;4997758;28;20804;-60
2022/05/16 12:05:43;;;;;;;4.87;4.37;;;30.00;99.90;;;;;;5010927;28;20558;-59
2022/05/16 12:08:40;;;;;;;6.50;3.53;;;30.40;99.90;;;;;;5018742;28;20919;-60
2022/05/16 12:11:19;;;;;;;6.43;4.20;;;30.70;99.90;;;;;;5018316;28;20502;-60
2022/05/16 12:14:12;;;;;;;5.40;4.17;;;30.70;99.90;;;;;;5020502;28;20510;-59
2022/05/16 12:17:20;;;;;;;4.60;3.77;;;30.10;99.90;;;;;;5011113;28;20468;-59
2022/05/16 12:19:50;;;;;;;4.17;3.87;;;29.50;99.90;;;;;;5019396;28;20455;-60
2022/05/16 12:22:25;;;;;;;4.73;3.43;;;29.80;99.90;;;;;;5004538;28;20469;-60
2022/05/16 12:25:08;;;;;;;4.07;3.60;;;29.80;99.90;;;;;;5016411;28;20508;-60
2022/05/16 12:27:39;;;;;;;4.43;3.97;;;30.50;99.90;;;;;;5018107;28;20474;-60
2022/05/16 12:30:10;;;;;;;4.87;3.80;;;31.40;99.90;;;;;;5021166;28;20940;-59
2022/05/16 12:33:01;;;;;;;4.67;3.63;;;31.20;99.90;;;;;;5006717;28;20527;-59
2022/05/16 12:35:40;;;;;;;7.73;4.23;;;30.60;99.90;;;;;;4979835;28;20756;-58
2022/05/16 12:38:10;;;;;;;4.90;4.47;;;29.60;99.90;;;;;;5016237;28;20529;-59
2022/05/16 12:41:10;;;;;;;10.90;4.83;;;28.80;99.90;;;;;;5020045;28;20462;-58
2022/05/16 12:44:11;;;;;;;6.13;5.43;;;28.10;99.90;;;;;;5010683;28;20476;-57
2022/05/16 12:47:15;;;;;;;6.20;5.53;;;27.60;99.90;;;;;;5010399;28;20472;-59
2022/05/16 12:50:12;;;;;;;7.90;4.97;;;27.20;99.90;;;;;;5014589;28;20526;-59
2022/05/16 12:53:08;;;;;;;8.80;6.30;;;26.30;99.90;;;;;;5012224;28;20536;-61
2022/05/16 12:55:49;;;;;;;8.67;6.17;;;25.60;99.90;;;;;;4989576;28;20518;-61
2022/05/16 12:58:21;;;;;;;8.73;6.30;;;24.80;99.90;;;;;;5018101;28;20493;-62
2022/05/16 13:00:59;;;;;;;7.60;6.57;;;24.20;99.90;;;;;;5010375;28;20518;-61
2022/05/16 13:03:47;;;;;;;8.77;6.57;;;23.60;99.90;;;;;;5016804;28;20478;-63
2022/05/16 13:06:43;;;;;;;14.53;8.00;;;23.40;99.90;;;;;;5008413;28;20781;-59
2022/05/16 13:09:27;;;;;;;9.40;7.13;;;23.50;99.90;;;;;;5015915;28;20483;-58
2022/05/16 13:12:00;;;;;;;9.23;7.47;;;23.50;99.90;;;;;;5000355;28;20551;-58
2022/05/16 13:14:36;;;;;;;8.20;7.40;;;23.40;99.90;;;;;;5019617;28;20486;-58
2022/05/16 13:17:13;;;;;;;8.60;6.97;;;23.50;99.90;;;;;;5017570;28;20472;-54
2022/05/16 13:19:44;;;;;;;9.13;6.93;;;23.30;99.90;;;;;;4999170;28;20465;-53
2022/05/16 13:22:18;;;;;;;11.50;7.43;;;23.10;99.90;;;;;;5016826;28;20463;-57
2022/05/16 13:24:59;;;;;;;8.87;7.77;;;22.90;99.90;;;;;;5000178;28;20514;-57
2022/05/16 13:30:21;;;;;;;14.40;8.07;;;22.80;99.90;;;;;;5005813;28;20483;-54
2022/05/16 13:32:50;;;;;;;10.37;7.90;;;22.70;99.90;;;;;;5017751;28;20780;-57
2022/05/16 13:35:28;;;;;;;10.97;9.03;;;22.60;99.90;;;;;;5018002;28;20492;-57
2022/05/16 13:37:57;;;;;;;12.47;8.20;;;22.50;99.90;;;;;;5012432;28;20461;-57
2022/05/16 13:40:27;;;;;;;15.80;8.90;;;22.20;99.90;;;;;;4999732;28;20809;-64
2022/05/16 13:42:57;;;;;;;15.77;7.93;;;21.60;99.90;;;;;;5014611;28;20531;-66
2022/05/16 13:45:27;;;;;;;9.20;6.40;;;20.70;1.00;;;;;;5003578;28;20452;-61
2022/05/16 13:48:05;;;;;;;6.83;6.23;;;20.00;1.00;;;;;;5010957;28;20967;-61
2022/05/16 13:50:35;;;;;;;13.50;7.63;;;19.50;1.00;;;;;;5009594;28;20572;-65
2022/05/16 13:53:06;;;;;;;8.30;7.00;;;19.20;1.00;;;;;;5013950;28;20500;-66
2022/05/16 13:55:33;;;;;;;12.37;6.70;;;18.90;1.00;;;;;;5015989;28;20766;-65
2022/05/16 13:58:07;;;;;;;11.30;6.73;;;18.60;1.00;;;;;;5015382;28;20824;-66
2022/05/16 14:00:42;;;;;;;6.80;4.63;;;18.30;1.00;;;;;;5014034;28;20534;-62
2022/05/16 14:03:24;;;;;;;4.43;3.70;;;17.90;1.00;;;;;;5014600;28;20475;-65
2022/05/16 14:05:54;;;;;;;6.83;3.77;;;17.60;1.00;;;;;;5014082;28;20460;-65
2022/05/16 14:08:31;;;;;;;7.90;4.70;;;17.40;1.00;;;;;;5015080;28;20473;-65
2022/05/16 14:10:58;;;;;;;9.37;4.83;;;17.50;1.00;;;;;;5013815;28;20495;-65
2022/05/16 14:13:29;;;;;;;7.90;5.50;;;17.70;1.00;;;;;;5013318;28;20549;-66
2022/05/16 14:16:06;;;;;;;8.73;4.23;;;17.60;38.90;;;;;;5010232;28;20562;-66
2022/05/16 14:18:44;;;;;;;5.50;3.87;;;17.40;10.60;;;;;;5014967;28;20755;-66
2022/05/16 14:21:17;;;;;;;9.37;4.97;;;17.30;1.00;;;;;;5017860;28;20526;-67
2022/05/16 14:23:48;;;;;;;9.30;5.43;;;17.10;1.00;;;;;;5016104;28;20511;-66
2022/05/16 14:26:31;;;;;;;9.30;5.13;;;17.10;1.00;;;;;;5005859;28;20468;-70
2022/05/16 14:29:14;;;;;;;9.20;5.10;;;17.10;99.90;;;;;;5005752;28;20555;-63
2022/05/16 14:31:47;;;;;;;11.33;6.23;;;17.20;99.90;;;;;;4998507;28;20583;-67
2022/05/16 14:34:31;;;;;;;14.13;6.50;;;17.40;99.90;;;;;;5012113;28;20476;-64
2022/05/16 14:37:05;;;;;;;11.53;5.80;;;17.50;1.00;;;;;;5018126;28;20475;-68
2022/05/16 14:39:41;;;;;;;10.20;6.00;;;17.40;1.00;;;;;;5015725;28;20798;-67
2022/05/16 14:42:10;;;;;;;13.40;4.93;;;17.20;1.00;;;;;;5006682;28;20524;-67
2022/05/16 14:44:54;;;;;;;11.03;6.43;;;17.20;1.00;;;;;;5017298;28;20475;-65
2022/05/16 14:47:29;;;;;;;12.73;6.83;;;17.20;1.00;;;;;;5016116;28;20476;-67
2022/05/16 14:50:03;;;;;;;10.77;6.70;;;17.20;1.00;;;;;;5006790;28;20468;-68
2022/05/16 14:52:41;;;;;;;12.63;5.60;;;17.00;99.90;;;;;;4998204;28;20516;-70
2022/05/16 14:55:20;;;;;;;7.80;5.90;;;16.90;99.90;;;;;;4999400;28;20917;-65
2022/05/16 14:57:47;;;;;;;8.97;5.23;;;16.80;1.00;;;;;;4999990;28;20810;-65
2022/05/16 15:05:56;;;;;;;9.20;6.03;;;16.70;99.90;;;;;;4997704;28;20440;-65
2022/05/16 15:08:28;;;;;;;9.03;6.13;;;16.80;99.90;;;;;;5008016;28;20522;-65
2022/05/16 15:10:56;;;;;;;11.43;7.63;;;16.70;99.90;;;;;;5018777;28;20532;-66
2022/05/16 15:13:26;;;;;;;13.57;6.13;;;16.60;99.90;;;;;;5018727;28;20511;-65
2022/05/16 15:15:53;;;;;;;5.20;4.40;;;16.50;99.90;;;;;;5000713;28;20555;-66
2022/05/16 15:18:20;;;;;;;6.30;5.10;;;16.40;99.90;;;;;;4998078;28;20476;-65
2022/05/16 15:21:01;;;;;;;5.33;4.83;;;16.40;99.90;;;;;;5006841;28;20502;-66
2022/05/16 15:23:34;;;;;;;8.00;4.73;;;16.50;99.90;;;;;;5016273;28;20503;-65
2022/05/16 15:26:01;;;;;;;8.40;5.77;;;16.50;99.90;;;;;;5003951;28;20476;-65
2022/05/16 15:28:28;;;;;;;7.40;6.10;;;16.60;99.90;;;;;;5002734;28;20460;-66
2022/05/16 15:30:57;;;;;;;11.97;6.60;;;16.60;99.90;;;;;;5012159;28;20484;-65
2022/05/16 15:33:28;;;;;;;6.90;5.30;;;16.50;99.90;;;;;;5015541;28;20542;-65
2022/05/16 15:35:56;;;;;;;8.33;5.60;;;16.50;99.90;;;;;;5011831;28;20464;-65
2022/05/16 15:38:29;;;;;;;8.37;5.70;;;16.40;99.90;;;;;;5015652;28;20514;-65
2022/05/16 15:40:56;;;;;;;7.00;5.97;;;16.40;99.90;;;;;;5012515;28;20463;-65
2022/05/16 15:43:26;;;;;;;7.93;5.67;;;16.50;99.90;;;;;;5015623;28;20522;-65
2022/05/16 15:45:57;;;;;;;7.20;6.23;;;16.60;99.90;;;;;;5018275;28;20965;-66
2022/05/16 15:48:24;;;;;;;7.37;5.73;;;16.60;99.90;;;;;;5021978;28;20472;-67
2022/05/16 15:50:57;;;;;;;9.90;5.50;;;16.60;99.90;;;;;;5011106;28;20488;-66
2022/05/16 15:53:24;;;;;;;9.53;8.33;;;16.80;99.90;;;;;;5008773;28;20935;-65
2022/05/16 15:55:53;;;;;;;8.33;6.80;;;16.90;99.90;;;;;;5020526;28;20529;-66
2022/05/16 15:58:20;;;;;;;7.20;6.50;;;17.00;99.90;;;;;;5003061;28;20468;-66
2022/05/16 16:00:50;;;;;;;10.20;7.30;;;17.10;99.90;;;;;;5004157;28;20519;-67
2022/05/16 16:09:00;;;;;;;9.40;6.00;;;17.60;99.90;;;;;;5003399;28;20599;-66
2022/05/16 16:11:33;;;;;;;6.50;5.50;;;17.80;99.90;;;;;;5003697;28;20502;-64
2022/05/16 16:14:07;;;;;;;7.20;6.60;;;18.00;80.10;;;;;;5003864;28;20927;-63
2022/05/16 16:16:39;;;;;;;7.40;6.50;;;18.00;1.00;;;;;;5009469;28;20458;-63
2022/05/16 16:19:10;;;;;;;9.30;6.30;;;18.00;1.00;;;;;;5004984;28;20461;-63
2022/05/16 16:21:37;;;;;;;7.20;6.17;;;18.00;99.90;;;;;;5007628;28;20888;-63
2022/05/16 16:24:08;;;;;;;10.47;5.90;;;18.10;47.30;;;;;;5023485;28;20510;-63
2022/05/16 16:26:38;;;;;;;11.97;6.83;;;18.10;99.90;;;;;;5023521;28;20491;-63
2022/05/16 16:29:09;;;;;;;9.37;6.23;;;18.20;99.90;;;;;;5022299;28;20460;-62
2022/05/16 16:31:40;;;;;;;7.07;5.53;;;18.10;1.00;;;;;;5022639;28;20495;-63
2022/05/16 16:34:09;;;;;;;6.70;6.00;;;18.00;1.00;;;;;;5021704;28;20534;-62
2022/05/16 16:36:41;;;;;;;7.47;6.27;;;17.90;1.00;;;;;;5023346;28;20468;-62
2022/05/16 16:39:09;;;;;;;7.77;6.40;;;17.90;99.90;;;;;;5016498;28;20473;-62
2022/05/16 16:41:44;;;;;;;9.30;6.03;;;17.90;99.90;;;;;;5002630;28;20435;-62
2022/05/16 16:44:13;;;;;;;6.10;5.20;;;18.00;87.70;;;;;;5003927;28;20542;-62
2022/05/16 16:46:44;;;;;;;28.30;25.73;;;18.00;1.00;;;;;;5007942;28;20526;-64
2022/05/16 16:49:11;;;;;;;11.17;10.10;;;18.10;1.00;;;;;;5020987;28;20430;-64
2022/05/16 16:57:31;;;;;;;8.93;8.07;;;18.20;1.00;;;;;;4999784;28;20459;-64
2022/05/16 17:00:00;;;;;;;7.73;6.60;;;18.20;99.90;;;;;;5004625;28;20522;-63
2022/05/16 17:02:34;;;;;;;7.13;6.40;;;18.10;99.90;;;;;;5019988;28;20479;-63
2022/05/16 17:05:09;;;;;;;7.70;6.90;;;18.20;99.90;;;;;;5019630;28;20463;-63
2022/05/16 17:07:49;;;;;;;6.93;6.23;;;18.10;99.90;;;;;;5019817;28;20814;-63
2022/05/16 17:10:21;;;;;;;8.93;6.77;;;18.10;99.90;;;;;;5017242;28;20537;-63
2022/05/16 17:12:53;;;;;;;6.93;6.23;;;18.10;99.90;;;;;;5018247;28;20467;-63
2022/05/16 17:15:23;;;;;;;7.33;6.20;;;18.10;99.90;;;;;;5013605;28;20460;-63
2022/05/16 17:17:54;;;;;;;7.23;6.60;;;18.00;99.90;;;;;;5015861;28;20467;-63
2022/05/16 17:20:23;;;;;;;9.40;6.60;;;18.00;99.90;;;;;;5015279;28;20801;-63
2022/05/16 17:22:52;;;;;;;7.20;6.50;;;18.00;99.90;;;;;;5017486;28;20518;-63
2022/05/16 17:25:21;;;;;;;7.73;6.50;;;18.00;1.00;;;;;;5017692;28;20464;-63
2022/05/16 17:28:11;;;;;;;7.30;6.67;;;18.00;1.00;;;;;;5017499;28;20543;-63
2022/05/16 17:30:40;;;;;;;7.37;6.30;;;18.00;1.00;;;;;;5017865;28;20492;-63
2022/05/16 17:33:11;;;;;;;6.93;6.33;;;18.10;1.00;;;;;;5018157;28;20492;-63
2022/05/16 17:35:42;;;;;;;6.77;6.07;;;18.10;1.00;;;;;;5016467;28;20452;-63
2022/05/16 17:38:14;;;;;;;7.00;6.33;;;18.10;1.00;;;;;;5017897;28;20434;-63
2022/05/16 17:40:41;;;;;;;7.57;6.80;;;18.10;99.90;;;;;;5015264;28;20916;-63
2022/05/16 17:43:14;;;;;;;7.07;6.47;;;18.10;1.00;;;;;;5017690;28;20554;-63
2022/05/16 17:45:41;;;;;;;8.50;7.60;;;18.10;1.00;;;;;;5015336;28;20499;-63
2022/05/16 17:48:13;;;;;;;7.77;6.93;;;18.10;99.90;;;;;;5018420;28;20815;-62
2022/05/16 17:50:46;;;;;;;7.40;6.00;;;18.10;1.00;;;;;;5019170;28;20534;-62
2022/05/16 17:53:14;;;;;;;7.90;6.87;;;18.10;1.00;;;;;;5018727;28;20508;-63
2022/05/16 17:55:46;;;;;;;7.80;7.10;;;18.10;1.00;;;;;;5018687;28;20489;-62
2022/05/16 17:58:17;;;;;;;8.70;7.53;;;18.10;99.90;;;;;;5018797;28;20478;-62
2022/05/16 18:00:50;;;;;;;8.37;7.67;;;18.20;99.90;;;;;;5016619;28;20442;-63
2022/05/16 18:03:17;;;;;;;8.13;7.07;;;18.20;99.90;;;;;;5017594;28;20456;-63
2022/05/16 18:05:44;;;;;;;8.40;7.50;;;18.20;99.90;;;;;;5016758;28;20507;-63
2022/05/16 18:08:21;;;;;;;10.23;7.90;;;18.10;99.90;;;;;;5015901;28;20762;-63
2022/05/16 18:13:47;;;;;;;8.87;7.80;;;18.20;1.00;;;;;;5012709;28;20451;-63
2022/05/16 18:16:14;;;;;;;9.30;8.40;;;18.20;52.80;;;;;;5018588;28;20464;-63
2022/05/16 18:18:45;;;;;;;8.90;8.00;;;18.30;1.00;;;;;;5018049;28;20456;-62
2022/05/16 18:21:18;;;;;;;8.90;8.20;;;18.40;1.00;;;;;;5018603;28;20926;-62
2022/05/16 18:23:50;;;;;;;9.60;8.80;;;18.50;1.00;;;;;;5018302;28;20465;-62
2022/05/16 18:26:17;;;;;;;9.30;7.70;;;18.60;99.90;;;;;;5018332;28;20460;-62
2022/05/16 18:28:44;;;;;;;8.93;8.10;;;18.60;99.90;;;;;;5018771;28;20518;-62
2022/05/16 18:31:16;;;;;;;9.37;8.40;;;18.50;99.90;;;;;;5018257;28;20526;-62
2022/05/16 18:33:43;;;;;;;9.43;8.30;;;18.40;99.90;;;;;;5018252;28;20554;-62
2022/05/16 18:36:23;;;;;;;9.93;9.03;;;18.40;1.00;;;;;;5018243;28;20780;-62
2022/05/16 18:38:51;;;;;;;9.57;8.60;;;18.40;99.90;;;;;;5015046;28;20474;-62
2022/05/16 18:41:26;;;;;;;12.37;9.70;;;18.30;99.90;;;;;;5017395;28;20464;-62
2022/05/16 18:52:23;;;;;;;19.13;16.90;;;17.80;99.90;;;;;;5010305;28;20802;-62
2022/05/16 18:54:53;;;;;;;19.60;13.27;;;17.70;99.90;;;;;;5004194;28;20554;-63
2022/05/16 18:57:20;;;;;;;16.30;14.60;;;17.70;1.00;;;;;;5017190;28;20889;-63
2022/05/16 18:59:52;;;;;;;20.93;15.10;;;17.60;99.90;;;;;;5009666;28;20496;-63
2022/05/16 19:02:21;;;;;;;25.60;17.03;;;17.40;99.90;;;;;;5005041;28;20951;-63
2022/05/16 19:04:48;;;;;;;23.10;15.37;;;17.40;99.90;;;;;;5018391;28;20500;-63
2022/05/16 19:07:28;;;;;;;16.30;13.60;;;17.30;99.90;;;;;;5001765;28;20535;-63
2022/05/16 19:09:58;;;;;;;19.77;15.20;;;17.30;99.90;;;;;;4998337;28;20924;-63
2022/05/16 19:12:36;;;;;;;18.20;15.40;;;17.20;99.90;;;;;;4997868;28;20496;-63
2022/05/16 19:15:03;;;;;;;13.23;11.93;;;17.20;99.90;;;;;;5001287;28;20457;-63
2022/05/16 19:17:36;;;;;;;15.63;13.07;;;17.10;99.90;;;;;;5014408;28;20735;-63
2022/05/16 19:20:04;;;;;;;16.33;13.60;;;17.10;99.90;;;;;;5011981;28;20471;-63
2022/05/16 19:22:34;;;;;;;17.87;13.73;;;17.00;99.90;;;;;;5008338;28;20543;-63
2022/05/16 19:25:01;;;;;;;16.80;14.50;;;17.00;99.90;;;;;;5007372;28;20475;-63
2022/05/16 19:27:33;;;;;;;15.37;13.93;;;16.90;99.90;;;;;;4997695;28;20496;-63
2022/05/16 19:33:01;;;;;;;16.30;14.07;;;16.80;99.90;;;;;;4997480;28;20925;-63
2022/05/16 19:35:33;;;;;;;16.33;14.60;;;16.80;99.90;;;;;;4997564;28;20469;-63
2022/05/16 19:38:00;;;;;;;16.60;15.10;;;16.70;99.90;;;;;;4997234;28;20837;-63
2022/05/16 19:40:28;;;;;;;16.40;14.80;;;16.70;99.90;;;;;;4997708;28;20563;-63
2022/05/16 19:42:57;;;;;;;16.97;15.20;;;16.70;99.90;;;;;;4997764;28;20464;-64
2022/05/16 19:45:24;;;;;;;16.80;15.10;;;16.70;99.90;;;;;;4997229;28;20744;-64
2022/05/16 19:47:58;;;;;;;16.48;14.93;;;16.70;99.90;;;;;;4997070;28;20467;-64
2022/05/16 19:50:30;;;;;;;18.70;17.00;;;16.90;99.90;;;;;;4997536;28;20238;-63
2022/05/16 19:53:05;;;;;;;16.07;14.47;;;16.90;99.90;;;;;;4997436;28;20766;-63
2022/05/16 19:55:37;;;;;;;17.07;15.40;;;16.80;99.90;;;;;;4997200;28;20471;-63
2022/05/16 19:58:13;;;;;;;15.10;13.67;;;16.80;99.90;;;;;;4997171;28;20452;-63
2022/05/16 20:00:42;;;;;;;16.60;15.10;;;16.80;99.90;;;;;;4996960;28;20511;-64
2022/05/16 20:03:22;;;;;;;18.13;15.67;;;16.80;99.90;;;;;;4997354;28;20439;-63
2022/05/16 20:05:49;;;;;;;17.67;15.97;;;16.80;99.90;;;;;;4997252;28;20475;-63
2022/05/16 20:08:20;;;;;;;16.70;15.20;;;16.80;99.90;;;;;;4997308;28;20469;-64
2022/05/16 20:10:48;;;;;;;17.03;15.13;;;16.80;99.90;;;;;;4997583;28;20489;-63
2022/05/16 20:13:22;;;;;;;17.20;15.37;;;16.80;99.90;;;;;;4997209;28;20485;-63
2022/05/16 20:15:52;;;;;;;17.43;15.73;;;16.80;99.90;;;;;;4997328;28;20472;-63
2022/05/16 20:18:24;;;;;;;16.90;15.40;;;16.60;99.90;;;;;;4997180;28;20507;-63
2022/05/16 20:20:51;;;;;;;17.23;15.40;;;16.50;99.90;;;;;;4997394;28;20509;-63
2022/05/16 20:26:05;;;;;;;17.90;15.47;;;16.40;99.90;;;;;;4996954;28;20461;-62
2022/05/16 20:28:34;;;;;;;16.33;14.63;;;16.40;99.90;;;;;;4997314;28;20960;-63